Time,TemperatureF,DewpointF,PressureIn,WindDirection,WindDirectionDegrees,WindSpeedMPH,WindSpeedGustMPH,Humidity,HourlyPrecipIn,Conditions,Clouds,dailyrainin,SoftwareType,DateUTC
2013-09-10 07:30:00,87.6,74.9,29.97,SW,222,0.0,1.0,66,0.00,CLR,FEW,0.00,WeatherDisplay:10.37,2013-09-10 11:30:00,
2013-09-10 09:54:00,83.3,76.5,30.00,SW,224,2.0,6.0,80,0.00,CLR,FEW,0.00,WeatherDisplay:10.37,2013-09-10 13:54:00,
2013-09-10 09:59:00,83.3,76.5,30.00,SW,235,5.0,6.0,80,0.00,CLR,FEW,0.00,WeatherDisplay:10.37,2013-09-10 13:59:00,
2013-09-10 10:04:00,83.8,76.6,30.00,SW,235,6.0,6.0,79,0.00,CLR,FEW,0.00,WeatherDisplay:10.37,2013-09-10 14:04:00,
2013-09-10 10:09:00,83.8,76.6,30.00,SW,235,6.0,6.0,79,0.00,CLR,FEW,0.00,WeatherDisplay:10.37,2013-09-10 14:09:00,
2013-09-10 10:19:00,85.3,76.0,30.00,South,180,5.0,5.0,74,0.00,CLR,FEW,0.00,WeatherDisplay:10.37,2013-09-10 14:19:00,
2013-09-10 10:29:00,86.0,76.3,30.00,SSW,192,2.0,5.0,73,0.00,CLR,FEW,0.00,WeatherDisplay:10.37,2013-09-10 14:29:00,
2013-09-10 10:39:00,86.2,75.7,30.00,SW,220,3.0,5.0,71,0.00,CLR,FEW,0.00,WeatherDisplay:10.37,2013-09-10 14:39:00,
2013-09-10 10:49:00,86.7,75.3,30.00,SW,220,5.0,5.0,69,0.00,CLR,FEW,0.00,WeatherDisplay:10.37,2013-09-10 14:49:00,
2013-09-10 10:59:00,88.2,76.7,30.00,SW,220,5.0,5.0,69,0.00,CLR,FEW,0.00,WeatherDisplay:10.37,2013-09-10 14:59:00,
2013-09-10 11:04:00,88.2,75.8,30.00,SW,220,5.0,5.0,67,0.00,CLR,FEW,0.00,WeatherDisplay:10.37,2013-09-10 15:04:00,
2013-09-10 11:09:00,88.2,75.8,30.00,SW,220,5.0,5.0,67,0.00,CLR,FEW,0.00,WeatherDisplay:10.37,2013-09-10 15:09:00,
2013-09-10 11:19:00,89.2,76.8,30.00,SW,220,5.0,5.0,67,0.00,CLR,FEW,0.00,WeatherDisplay:10.37,2013-09-10 15:19:00,
2013-09-10 11:24:00,89.2,75.9,30.00,SW,220,5.0,5.0,65,0.00,CLR,FEW,0.00,WeatherDisplay:10.37,2013-09-10 15:24:00,
2013-09-10 11:29:00,89.6,75.8,30.00,SW,220,5.0,5.0,64,0.00,CLR,FEW,0.00,WeatherDisplay:10.37,2013-09-10 15:29:00,
2013-09-10 11:39:00,89.6,75.8,30.00,SW,220,5.0,5.0,64,0.00,CLR,FEW,0.00,WeatherDisplay:10.37,2013-09-10 15:39:00,
2013-09-10 11:44:00,90.3,76.5,30.00,SW,220,5.0,5.0,64,0.00,CLR,FEW,0.00,WeatherDisplay:10.37,2013-09-10 15:44:00,
2013-09-10 11:49:00,90.1,75.8,30.00,SW,220,5.0,5.0,63,0.00,CLR,FEW,0.00,WeatherDisplay:10.37,2013-09-10 15:49:00,
2013-09-10 11:59:00,90.9,76.0,30.00,SW,220,5.0,5.0,62,0.00,CLR,FEW,0.00,WeatherDisplay:10.37,2013-09-10 15:59:00,
2013-09-10 12:04:00,93.4,76.4,30.00,SW,220,5.0,5.0,58,0.00,CLR,FEW,0.00,WeatherDisplay:10.37,2013-09-10 16:04:00,
2013-09-10 12:09:00,92.8,75.9,30.00,SW,220,5.0,5.0,58,0.00,CLR,FEW,0.00,WeatherDisplay:10.37,2013-09-10 16:09:00,
2013-09-10 12:19:00,91.4,75.6,30.00,SW,220,5.0,5.0,60,0.00,CLR,FEW,0.00,WeatherDisplay:10.37,2013-09-10 16:19:00,
2013-09-10 12:24:00,91.4,75.6,30.00,SW,220,5.0,5.0,60,0.00,CLR,FEW,0.00,WeatherDisplay:10.37,2013-09-10 16:24:00,
2013-09-10 12:29:00,91.4,75.6,30.00,SW,220,5.0,5.0,60,0.00,CLR,FEW,0.00,WeatherDisplay:10.37,2013-09-10 16:29:00,
2013-09-10 12:39:00,91.6,75.7,30.00,SW,220,5.0,5.0,60,0.00,CLR,FEW,0.00,WeatherDisplay:10.37,2013-09-10 16:39:00,
2013-09-10 12:49:00,91.8,75.9,30.00,SW,220,5.0,5.0,60,0.00,CLR,FEW,0.00,WeatherDisplay:10.37,2013-09-10 16:49:00,
2013-09-10 12:59:00,92.8,74.8,30.00,SW,220,5.0,5.0,56,0.00,CLR,FEW,0.00,WeatherDisplay:10.37,2013-09-10 16:59:00,
2013-09-10 13:04:00,92.8,75.9,30.00,SW,220,5.0,5.0,58,0.00,CLR,FEW,0.00,WeatherDisplay:10.37,2013-09-10 17:04:00,
2013-09-10 13:09:00,93.2,75.2,30.00,SW,220,5.0,5.0,56,0.00,CLR,FEW,0.00,WeatherDisplay:10.37,2013-09-10 17:09:00,
2013-09-10 13:14:00,92.8,74.8,30.00,SW,220,5.0,5.0,56,0.00,CLR,FEW,0.00,WeatherDisplay:10.37,2013-09-10 17:14:00,
2013-09-10 13:19:00,92.8,75.4,30.00,SW,220,5.0,5.0,57,0.00,CLR,FEW,0.00,WeatherDisplay:10.37,2013-09-10 17:19:00,
2013-09-10 13:29:00,92.5,74.5,30.00,SW,220,5.0,5.0,56,0.00,CLR,FEW,0.00,WeatherDisplay:10.37,2013-09-10 17:29:00,
2013-09-10 13:39:00,92.7,74.7,30.00,SW,220,5.0,5.0,56,0.00,CLR,FEW,0.00,WeatherDisplay:10.37,2013-09-10 17:39:00,
2013-09-10 13:44:00,92.5,75.0,30.00,SW,220,5.0,5.0,57,0.00,CLR,FEW,0.00,WeatherDisplay:10.37,2013-09-10 17:44:00,
2013-09-10 13:49:00,92.8,74.8,30.00,SW,220,5.0,5.0,56,0.00,CLR,FEW,0.00,WeatherDisplay:10.37,2013-09-10 17:49:00,
2013-09-10 13:54:00,92.8,74.3,30.00,SW,220,5.0,5.0,55,0.00,CLR,FEW,0.00,WeatherDisplay:10.37,2013-09-10 17:54:00,
2013-09-10 13:59:00,93.2,75.2,30.00,SW,220,5.0,5.0,56,0.00,CLR,FEW,0.00,WeatherDisplay:10.37,2013-09-10 17:59:00,
2013-09-10 14:04:00,93.2,75.2,30.00,SW,220,5.0,5.0,56,0.00,CLR,FEW,0.00,WeatherDisplay:10.37,2013-09-10 18:04:00,
2013-09-10 14:09:00,93.2,75.2,30.00,SW,220,5.0,5.0,56,0.00,CLR,FEW,0.00,WeatherDisplay:10.37,2013-09-10 18:09:00,
2013-09-10 14:19:00,93.2,74.6,30.00,SW,220,5.0,5.0,55,0.00,CLR,FEW,0.00,WeatherDisplay:10.37,2013-09-10 18:19:00,
2013-09-10 14:24:00,93.4,74.2,30.00,SW,220,5.0,5.0,54,0.00,CLR,FEW,0.00,WeatherDisplay:10.37,2013-09-10 18:24:00,
2013-09-10 14:29:00,93.7,75.1,30.00,SW,220,5.0,5.0,55,0.00,CLR,FEW,0.00,WeatherDisplay:10.37,2013-09-10 18:29:00,
2013-09-10 14:39:00,93.6,75.0,30.00,SW,220,5.0,5.0,55,0.00,CLR,FEW,0.00,WeatherDisplay:10.37,2013-09-10 18:39:00,
2013-09-10 14:44:00,93.2,74.1,30.00,SW,220,5.0,5.0,54,0.00,CLR,FEW,0.00,WeatherDisplay:10.37,2013-09-10 18:44:00,
2013-09-10 14:49:00,93.2,74.1,30.00,SW,220,5.0,5.0,54,0.00,CLR,FEW,0.00,WeatherDisplay:10.37,2013-09-10 18:49:00,
2013-09-10 14:54:00,93.2,74.1,30.00,SW,220,5.0,5.0,54,0.00,CLR,FEW,0.00,WeatherDisplay:10.37,2013-09-10 18:54:00,
2013-09-10 14:59:00,93.4,74.2,30.00,SW,220,5.0,5.0,54,0.00,CLR,FEW,0.00,WeatherDisplay:10.37,2013-09-10 18:59:00,
2013-09-10 15:04:00,93.4,74.2,30.00,SW,220,5.0,5.0,54,0.00,CLR,FEW,0.00,WeatherDisplay:10.37,2013-09-10 19:04:00,
2013-09-10 15:09:00,93.4,74.2,29.97,SW,220,5.0,5.0,54,0.00,CLR,FEW,0.00,WeatherDisplay:10.37,2013-09-10 19:09:00,
2013-09-10 15:19:00,93.2,73.5,29.97,SW,220,5.0,5.0,53,0.00,CLR,FEW,0.00,WeatherDisplay:10.37,2013-09-10 19:19:00,
2013-09-10 15:29:00,93.6,74.4,29.97,SW,220,5.0,5.0,54,0.00,CLR,FEW,0.00,WeatherDisplay:10.37,2013-09-10 19:29:00,
2013-09-10 15:39:00,93.4,74.8,29.97,SW,220,5.0,5.0,55,0.00,CLR,FEW,0.00,WeatherDisplay:10.37,2013-09-10 19:39:00,
2013-09-10 15:44:00,93.4,74.2,29.97,SW,220,5.0,5.0,54,0.00,CLR,FEW,0.00,WeatherDisplay:10.37,2013-09-10 19:44:00,
2013-09-10 15:49:00,92.5,73.4,29.97,SW,220,5.0,5.0,54,0.00,CLR,FEW,0.00,WeatherDisplay:10.37,2013-09-10 19:49:00,
2013-09-10 15:59:00,92.8,74.3,29.97,SW,220,5.0,5.0,55,0.00,CLR,FEW,0.00,WeatherDisplay:10.37,2013-09-10 19:59:00,
2013-09-10 16:04:00,92.7,74.7,29.97,SW,220,5.0,5.0,56,0.00,CLR,FEW,0.00,WeatherDisplay:10.37,2013-09-10 20:04:00,
2013-09-10 16:09:00,92.7,74.7,29.97,SW,220,5.0,5.0,56,0.00,CLR,FEW,0.00,WeatherDisplay:10.37,2013-09-10 20:09:00,
2013-09-10 16:19:00,93.0,75.0,29.97,SW,220,5.0,5.0,56,0.00,CLR,FEW,0.00,WeatherDisplay:10.37,2013-09-10 20:19:00,
2013-09-10 16:24:00,92.8,74.8,29.97,SW,220,5.0,5.0,56,0.00,CLR,FEW,0.00,WeatherDisplay:10.37,2013-09-10 20:24:00,
2013-09-10 16:29:00,92.7,75.2,29.97,SW,220,5.0,5.0,57,0.00,CLR,FEW,0.00,WeatherDisplay:10.37,2013-09-10 20:29:00,
2013-09-10 16:30:00,79.3,74.8,30.03,SW,219,0.0,0.0,86,0.00,CLR,FEW,0.00,WeatherDisplay:10.37,2013-09-10 20:30:00,
2013-09-10 16:34:00,92.3,75.9,29.97,SW,220,5.0,5.0,59,0.00,CLR,FEW,0.00,WeatherDisplay:10.37,2013-09-10 20:34:00,
2013-09-10 16:35:00,79.3,74.8,30.03,SSW,204,0.0,0.0,86,0.00,CLR,FEW,0.00,WeatherDisplay:10.37,2013-09-10 20:35:00,
2013-09-10 16:39:00,92.1,75.7,29.97,SW,220,5.0,5.0,59,0.00,CLR,FEW,0.00,WeatherDisplay:10.37,2013-09-10 20:39:00,
2013-09-10 16:40:00,79.3,75.1,30.03,SSW,195,0.0,0.0,87,0.00,CLR,FEW,0.00,WeatherDisplay:10.37,2013-09-10 20:40:00,
2013-09-10 16:45:00,79.3,75.1,30.03,SSE,168,0.0,0.0,87,0.00,CLR,FEW,0.00,WeatherDisplay:10.37,2013-09-10 20:45:00,
2013-09-10 16:49:00,91.6,75.2,29.97,SW,220,5.0,5.0,59,0.00,CLR,FEW,0.00,WeatherDisplay:10.37,2013-09-10 20:49:00,
2013-09-10 16:50:00,79.3,75.1,30.03,SSE,164,0.0,0.0,87,0.00,CLR,FEW,0.00,WeatherDisplay:10.37,2013-09-10 20:50:00,
2013-09-10 16:54:00,91.4,75.1,29.97,SW,220,5.0,5.0,59,0.00,CLR,FEW,0.00,WeatherDisplay:10.37,2013-09-10 20:54:00,
2013-09-10 16:55:00,79.2,75.0,30.03,SSW,200,0.0,0.0,87,0.00,CLR,FEW,0.00,WeatherDisplay:10.37,2013-09-10 20:55:00,
2013-09-10 16:59:00,92.1,74.7,29.97,SW,220,5.0,5.0,57,0.00,CLR,FEW,0.00,WeatherDisplay:10.37,2013-09-10 20:59:00,
2013-09-10 17:00:00,79.2,75.0,30.03,SW,214,0.0,0.0,87,0.00,CLR,FEW,0.00,WeatherDisplay:10.37,2013-09-10 21:00:00,
2013-09-10 17:04:00,91.8,74.9,29.97,SW,220,5.0,5.0,58,0.00,CLR,FEW,0.00,WeatherDisplay:10.37,2013-09-10 21:04:00,
2013-09-10 17:05:00,79.0,74.8,30.03,SSW,213,0.0,0.0,87,0.00,CLR,FEW,0.00,WeatherDisplay:10.37,2013-09-10 21:05:00,
2013-09-10 17:09:00,91.4,75.1,29.97,SW,220,5.0,5.0,59,0.00,CLR,FEW,0.00,WeatherDisplay:10.37,2013-09-10 21:09:00,
2013-09-10 17:10:00,78.8,74.6,30.03,SW,219,0.0,0.0,87,0.00,CLR,FEW,0.00,WeatherDisplay:10.37,2013-09-10 21:10:00,
2013-09-10 17:15:00,78.8,74.6,30.03,SW,214,0.0,0.0,87,0.00,CLR,FEW,0.00,WeatherDisplay:10.37,2013-09-10 21:15:00,
2013-09-10 17:19:00,91.2,75.4,29.97,SW,220,5.0,5.0,60,0.00,CLR,FEW,0.00,WeatherDisplay:10.37,2013-09-10 21:19:00,
2013-09-10 17:20:00,78.8,74.6,30.03,SSW,202,0.0,0.0,87,0.00,CLR,FEW,0.00,WeatherDisplay:10.37,2013-09-10 21:20:00,
2013-09-10 17:24:00,91.2,75.4,29.97,SW,220,5.0,5.0,60,0.00,CLR,FEW,0.00,WeatherDisplay:10.37,2013-09-10 21:24:00,
2013-09-10 17:29:00,91.2,75.4,29.97,SW,220,5.0,5.0,60,0.00,CLR,FEW,0.00,WeatherDisplay:10.37,2013-09-10 21:29:00,
2013-09-10 17:39:00,91.2,75.4,29.97,SW,220,5.0,5.0,60,0.00,CLR,FEW,0.00,WeatherDisplay:10.37,2013-09-10 21:39:00,
2013-09-10 17:49:00,91.2,75.4,29.97,SW,220,5.0,5.0,60,0.00,CLR,FEW,0.00,WeatherDisplay:10.37,2013-09-10 21:49:00,
2013-09-10 17:54:00,91.2,75.4,29.97,SW,220,5.0,5.0,60,0.00,CLR,FEW,0.00,WeatherDisplay:10.37,2013-09-10 21:54:00,
2013-09-10 17:59:00,91.2,75.4,29.97,SW,220,5.0,5.0,60,0.00,CLR,FEW,0.00,WeatherDisplay:10.37,2013-09-10 21:59:00,
2013-09-10 18:04:00,91.2,75.4,29.97,SW,220,5.0,5.0,60,0.00,CLR,FEW,0.00,WeatherDisplay:10.37,2013-09-10 22:04:00,
2013-09-10 18:09:00,88.7,75.0,29.97,SW,220,5.0,5.0,64,0.00,CLR,FEW,0.00,WeatherDisplay:10.37,2013-09-10 22:09:00,
2013-09-10 18:19:00,88.5,74.8,29.97,SW,215,3.0,0.0,64,0.00,CLR,FEW,0.00,WeatherDisplay:10.37,2013-09-10 22:19:00,
2013-09-10 18:39:00,87.1,74.8,29.97,WSW,250,0.0,0.0,67,0.00,CLR,FEW,0.00,WeatherDisplay:10.37,2013-09-10 22:39:00,
2013-09-10 18:49:00,86.4,75.0,29.97,WSW,250,0.0,0.0,69,0.00,CLR,FEW,0.00,WeatherDisplay:10.37,2013-09-10 22:49:00,
2013-09-10 18:54:00,86.2,74.8,29.97,WSW,250,0.0,0.0,69,0.00,CLR,FEW,0.00,WeatherDisplay:10.37,2013-09-10 22:54:00,
2013-09-10 18:59:00,85.8,75.3,29.97,WSW,243,0.0,0.0,71,0.00,CLR,FEW,0.00,WeatherDisplay:10.37,2013-09-10 22:59:00,
2013-09-10 19:04:00,85.8,75.3,29.97,SW,235,0.0,0.0,71,0.00,CLR,FEW,0.00,WeatherDisplay:10.37,2013-09-10 23:04:00,
2013-09-10 19:09:00,86.0,75.1,29.97,SW,233,0.0,0.0,70,0.00,CLR,FEW,0.00,WeatherDisplay:10.37,2013-09-10 23:09:00,
2013-09-10 19:19:00,85.6,75.6,29.97,SW,217,0.0,0.0,72,0.00,CLR,FEW,0.00,WeatherDisplay:10.37,2013-09-10 23:19:00,
2013-09-10 19:29:00,85.5,75.8,29.97,SSW,201,0.0,0.0,73,0.00,CLR,FEW,0.00,WeatherDisplay:10.37,2013-09-10 23:29:00,
2013-09-10 19:34:00,85.5,75.8,29.97,South,191,0.0,0.0,73,0.00,CLR,FEW,0.00,WeatherDisplay:10.37,2013-09-10 23:34:00,
2013-09-10 19:39:00,85.3,75.2,29.97,South,187,0.0,0.0,72,0.00,CLR,FEW,0.00,WeatherDisplay:10.37,2013-09-10 23:39:00,
2013-09-10 19:49:00,85.1,75.5,29.97,South,190,0.0,0.0,73,0.00,CLR,FEW,0.00,WeatherDisplay:10.37,2013-09-10 23:49:00,
2013-09-10 19:59:00,85.3,75.2,29.97,SSW,197,0.0,0.0,72,0.00,CLR,FEW,0.00,WeatherDisplay:10.37,2013-09-10 23:59:00,
2013-09-10 20:04:00,85.1,75.5,30.00,SSW,207,0.0,0.0,73,0.00,CLR,FEW,0.00,WeatherDisplay:10.37,2013-09-11 00:04:00,
2013-09-10 20:09:00,85.1,75.5,30.00,SSW,210,0.0,0.0,73,0.00,CLR,FEW,0.00,WeatherDisplay:10.37,2013-09-11 00:09:00,
2013-09-10 20:19:00,84.9,75.7,30.00,South,176,0.0,0.0,74,0.00,CLR,FEW,0.00,WeatherDisplay:10.37,2013-09-11 00:19:00,
2013-09-10 20:24:00,85.1,75.9,30.00,SSE,161,0.0,0.0,74,0.00,CLR,FEW,0.00,WeatherDisplay:10.37,2013-09-11 00:24:00,
2013-09-10 20:29:00,85.3,76.0,30.00,SSE,156,0.0,0.0,74,0.00,CLR,FEW,0.00,WeatherDisplay:10.37,2013-09-11 00:29:00,
2013-09-10 20:39:00,85.6,76.4,30.00,SSW,195,0.0,0.0,74,0.00,CLR,FEW,0.00,WeatherDisplay:10.37,2013-09-11 00:39:00,
2013-09-10 20:44:00,85.5,76.2,30.00,SSW,198,0.0,1.0,74,0.00,CLR,FEW,0.00,WeatherDisplay:10.37,2013-09-11 00:44:00,
2013-09-10 20:49:00,85.6,76.4,30.00,SSE,162,0.0,1.0,74,0.00,CLR,FEW,0.00,WeatherDisplay:10.37,2013-09-11 00:49:00,
2013-09-10 20:59:00,85.5,76.2,30.00,SSE,148,0.0,0.0,74,0.00,CLR,FEW,0.00,WeatherDisplay:10.37,2013-09-11 00:59:00,
2013-09-10 21:04:00,85.6,76.4,30.00,South,188,0.0,0.0,74,0.00,CLR,FEW,0.00,WeatherDisplay:10.37,2013-09-11 01:04:00,
2013-09-10 21:09:00,85.6,76.4,30.00,SSW,206,0.0,0.0,74,0.00,CLR,FEW,0.00,WeatherDisplay:10.37,2013-09-11 01:09:00,
2013-09-10 21:19:00,85.5,76.2,30.00,SSW,213,0.0,1.0,74,0.00,CLR,FEW,0.00,WeatherDisplay:10.37,2013-09-11 01:19:00,
2013-09-10 21:29:00,85.5,76.2,30.03,South,186,0.0,1.0,74,0.00,CLR,FEW,0.00,WeatherDisplay:10.37,2013-09-11 01:29:00,
2013-09-10 21:34:00,85.3,76.0,30.03,SSW,206,0.0,1.0,74,0.00,CLR,FEW,0.00,WeatherDisplay:10.37,2013-09-11 01:34:00,
2013-09-10 21:39:00,85.1,75.9,30.03,SW,214,0.0,0.0,74,0.00,CLR,FEW,0.00,WeatherDisplay:10.37,2013-09-11 01:39:00,
2013-09-10 21:49:00,85.1,76.3,30.03,SSW,193,0.0,0.0,75,0.00,CLR,FEW,0.00,WeatherDisplay:10.37,2013-09-11 01:49:00,
2013-09-10 21:59:00,85.1,76.3,30.03,SSW,208,0.0,1.0,75,0.00,CLR,FEW,0.00,WeatherDisplay:10.37,2013-09-11 01:59:00,
2013-09-10 22:04:00,84.7,76.3,30.03,SW,215,0.0,1.0,76,0.00,CLR,FEW,0.00,WeatherDisplay:10.37,2013-09-11 02:04:00,
2013-09-10 22:09:00,84.9,76.5,30.03,SSW,195,0.0,0.0,76,0.00,CLR,FEW,0.00,WeatherDisplay:10.37,2013-09-11 02:09:00,
2013-09-10 22:14:00,84.7,76.3,30.03,South,190,0.0,0.0,76,0.00,CLR,FEW,0.00,WeatherDisplay:10.37,2013-09-11 02:14:00,
2013-09-10 22:19:00,84.7,76.3,30.03,SSW,206,0.0,0.0,76,0.00,CLR,FEW,0.00,WeatherDisplay:10.37,2013-09-11 02:19:00,
2013-09-10 22:29:00,84.7,76.3,30.03,South,170,0.0,0.0,76,0.00,CLR,FEW,0.00,WeatherDisplay:10.37,2013-09-11 02:29:00,
2013-09-10 22:39:00,84.7,76.3,30.03,South,178,0.0,1.0,76,0.00,CLR,FEW,0.00,WeatherDisplay:10.37,2013-09-11 02:39:00,
2013-09-10 22:49:00,84.4,76.0,30.03,SSE,152,1.0,1.0,76,0.00,CLR,FEW,0.00,WeatherDisplay:10.37,2013-09-11 02:49:00,
2013-09-10 22:59:00,84.2,75.8,30.03,SE,128,0.0,1.0,76,0.00,CLR,FEW,0.00,WeatherDisplay:10.37,2013-09-11 02:59:00,
2013-09-10 23:04:00,84.2,75.8,30.03,SSE,166,0.0,1.0,76,0.00,CLR,FEW,0.00,WeatherDisplay:10.37,2013-09-11 03:04:00,
2013-09-10 23:09:00,84.0,76.0,30.03,SSE,162,0.0,0.0,77,0.00,CLR,FEW,0.00,WeatherDisplay:10.37,2013-09-11 03:09:00,
2013-09-10 23:19:00,83.8,75.9,30.03,South,173,0.0,0.0,77,0.00,CLR,FEW,0.00,WeatherDisplay:10.37,2013-09-11 03:19:00,
2013-09-10 23:29:00,83.7,76.1,30.03,SSW,199,0.0,1.0,78,0.00,CLR,FEW,0.00,WeatherDisplay:10.37,2013-09-11 03:29:00,
2013-09-10 23:39:00,83.7,76.1,30.03,SSW,200,0.0,1.0,78,0.00,CLR,FEW,0.00,WeatherDisplay:10.37,2013-09-11 03:39:00,
2013-09-10 23:49:00,83.1,75.5,30.03,SW,223,1.0,1.0,78,0.00,CLR,FEW,0.00,WeatherDisplay:10.37,2013-09-11 03:49:00,
2013-09-10 23:59:00,82.8,75.2,30.03,SW,223,0.0,0.0,78,0.00,CLR,FEW,0.00,WeatherDisplay:10.37,2013-09-11 03:59:00,